sensor_id;sensor_type;location;lat;lon;timestamp;P1;P2;P0
37290;PMS5003;23175;-33.706;151.094;2023-05-10T00:01:16;2;2;
37290;PMS5003;23175;-33.706;151.094;2023-05-10T00:03:45;5;3;
37290;PMS5003;23175;-33.706;151.094;2023-05-10T00:06:15;2;1;
37290;PMS5003;23175;-33.706;151.094;2023-05-10T00:08:46;8;5;
37290;PMS5003;23175;-33.706;151.094;2023-05-10T00:11:15;3;3;
37290;PMS5003;23175;-33.706;151.094;2023-05-10T00:13:45;4;4;
37290;PMS5003;23175;-33.706;151.094;2023-05-10T00:16:15;4;2;
37290;PMS5003;23175;-33.706;151.094;2023-05-10T00:18:45;3;3;
37290;PMS5003;23175;-33.706;151.094;2023-05-10T00:21:16;3;3;
37290;PMS5003;23175;-33.706;151.094;2023-05-10T00:23:46;2;2;
37290;PMS5003;23175;-33.706;151.094;2023-05-10T00:26:16;5;5;
37290;PMS5003;23175;-33.706;151.094;2023-05-10T00:28:45;3;3;
37290;PMS5003;23175;-33.706;151.094;2023-05-10T00:31:15;5;3;
37290;PMS5003;23175;-33.706;151.094;2023-05-10T00:33:45;2;2;
37290;PMS5003;23175;-33.706;151.094;2023-05-10T00:36:15;3;3;
37290;PMS5003;23175;-33.706;151.094;2023-05-10T00:38:44;5;3;
37290;PMS5003;23175;-33.706;151.094;2023-05-10T00:41:14;4;3;
37290;PMS5003;23175;-33.706;151.094;2023-05-10T00:43:44;2;2;
37290;PMS5003;23175;-33.706;151.094;2023-05-10T00:46:14;3;3;
37290;PMS5003;23175;-33.706;151.094;2023-05-10T00:48:44;3;3;
37290;PMS5003;23175;-33.706;151.094;2023-05-10T00:51:14;4;3;
37290;PMS5003;23175;-33.706;151.094;2023-05-10T00:53:44;2;1;
37290;PMS5003;23175;-33.706;151.094;2023-05-10T00:56:16;3;2;
37290;PMS5003;23175;-33.706;151.094;2023-05-10T00:58:46;1;1;
37290;PMS5003;23175;-33.706;151.094;2023-05-10T01:01:16;1;1;
37290;PMS5003;23175;-33.706;151.094;2023-05-10T01:03:47;1;1;
37290;PMS5003;23175;-33.706;151.094;2023-05-10T01:06:17;1;1;
37290;PMS5003;23175;-33.706;151.094;2023-05-10T01:08:47;2;2;
37290;PMS5003;23175;-33.706;151.094;2023-05-10T01:11:17;2;2;
37290;PMS5003;23175;-33.706;151.094;2023-05-10T01:13:52;2;2;
37290;PMS5003;23175;-33.706;151.094;2023-05-10T01:16:24;1;1;
37290;PMS5003;23175;-33.706;151.094;2023-05-10T01:18:57;2;2;
37290;PMS5003;23175;-33.706;151.094;2023-05-10T01:21:29;3;2;
37290;PMS5003;23175;-33.706;151.094;2023-05-10T01:24:12;1;1;
37290;PMS5003;23175;-33.706;151.094;2023-05-10T01:27:16;1;1;
37290;PMS5003;23175;-33.706;151.094;2023-05-10T01:30:01;3;3;
37290;PMS5003;23175;-33.706;151.094;2023-05-10T01:32:47;1;1;
37290;PMS5003;23175;-33.706;151.094;2023-05-10T01:35:26;1;1;
37290;PMS5003;23175;-33.706;151.094;2023-05-10T01:38:07;3;1;
37290;PMS5003;23175;-33.706;151.094;2023-05-10T01:40:48;1;1;
37290;PMS5003;23175;-33.706;151.094;2023-05-10T01:43:28;1;1;
37290;PMS5003;23175;-33.706;151.094;2023-05-10T01:46:03;0;0;
37290;PMS5003;23175;-33.706;151.094;2023-05-10T01:48:38;1;1;
37290;PMS5003;23175;-33.706;151.094;2023-05-10T01:51:16;1;1;
37290;PMS5003;23175;-33.706;151.094;2023-05-10T01:53:53;1;1;
37290;PMS5003;23175;-33.706;151.094;2023-05-10T01:56:26;3;2;
37290;PMS5003;23175;-33.706;151.094;2023-05-10T01:58:59;1;1;
37290;PMS5003;23175;-33.706;151.094;2023-05-10T02:01:32;1;1;
37290;PMS5003;23175;-33.706;151.094;2023-05-10T02:04:04;1;1;
37290;PMS5003;23175;-33.706;151.094;2023-05-10T02:06:35;1;1;
37290;PMS5003;23175;-33.706;151.094;2023-05-10T02:09:07;1;1;
37290;PMS5003;23175;-33.706;151.094;2023-05-10T02:11:38;3;3;
37290;PMS5003;23175;-33.706;151.094;2023-05-10T02:14:10;2;2;
37290;PMS5003;23175;-33.706;151.094;2023-05-10T02:16:44;2;2;
37290;PMS5003;23175;-33.706;151.094;2023-05-10T02:19:18;2;2;
37290;PMS5003;23175;-33.706;151.094;2023-05-10T02:21:49;1;1;
37290;PMS5003;23175;-33.706;151.094;2023-05-10T02:24:21;2;2;
37290;PMS5003;23175;-33.706;151.094;2023-05-10T02:26:52;1;1;
37290;PMS5003;23175;-33.706;151.094;2023-05-10T02:29:23;1;1;
37290;PMS5003;23175;-33.706;151.094;2023-05-10T02:31:55;1;1;
37290;PMS5003;23175;-33.706;151.094;2023-05-10T02:34:27;0;0;
37290;PMS5003;23175;-33.706;151.094;2023-05-10T02:36:59;3;1;
37290;PMS5003;23175;-33.706;151.094;2023-05-10T02:39:30;1;1;
37290;PMS5003;23175;-33.706;151.094;2023-05-10T02:42:01;1;1;
37290;PMS5003;23175;-33.706;151.094;2023-05-10T02:44:32;1;1;
37290;PMS5003;23175;-33.706;151.094;2023-05-10T02:47:03;0;0;
37290;PMS5003;23175;-33.706;151.094;2023-05-10T02:49:33;1;1;
37290;PMS5003;23175;-33.706;151.094;2023-05-10T02:52:04;3;2;
37290;PMS5003;23175;-33.706;151.094;2023-05-10T02:54:39;2;1;
37290;PMS5003;23175;-33.706;151.094;2023-05-10T02:57:14;1;1;
37290;PMS5003;23175;-33.706;151.094;2023-05-10T02:59:48;1;1;
37290;PMS5003;23175;-33.706;151.094;2023-05-10T03:02:18;0;0;
37290;PMS5003;23175;-33.706;151.094;2023-05-10T03:04:50;0;0;
37290;PMS5003;23175;-33.706;151.094;2023-05-10T03:07:19;0;0;
37290;PMS5003;23175;-33.706;151.094;2023-05-10T03:09:50;0;0;
37290;PMS5003;23175;-33.706;151.094;2023-05-10T03:12:23;1;1;
37290;PMS5003;23175;-33.706;151.094;2023-05-10T03:15:03;1;1;
37290;PMS5003;23175;-33.706;151.094;2023-05-10T03:17:41;0;0;
37290;PMS5003;23175;-33.706;151.094;2023-05-10T03:20:20;1;1;
37290;PMS5003;23175;-33.706;151.094;2023-05-10T03:22:55;2;2;
37290;PMS5003;23175;-33.706;151.094;2023-05-10T03:25:29;1;1;
37290;PMS5003;23175;-33.706;151.094;2023-05-10T03:28:00;0;0;
37290;PMS5003;23175;-33.706;151.094;2023-05-10T03:30:32;0;0;
37290;PMS5003;23175;-33.706;151.094;2023-05-10T03:33:05;2;2;
37290;PMS5003;23175;-33.706;151.094;2023-05-10T03:35:35;1;1;
37290;PMS5003;23175;-33.706;151.094;2023-05-10T03:38:05;1;1;
37290;PMS5003;23175;-33.706;151.094;2023-05-10T03:40:34;2;0;
37290;PMS5003;23175;-33.706;151.094;2023-05-10T03:43:05;3;0;
37290;PMS5003;23175;-33.706;151.094;2023-05-10T03:45:35;0;0;
37290;PMS5003;23175;-33.706;151.094;2023-05-10T03:48:04;1;1;
37290;PMS5003;23175;-33.706;151.094;2023-05-10T03:50:35;0;0;
37290;PMS5003;23175;-33.706;151.094;2023-05-10T03:53:04;0;0;
37290;PMS5003;23175;-33.706;151.094;2023-05-10T03:55:34;2;0;
37290;PMS5003;23175;-33.706;151.094;2023-05-10T03:58:05;1;1;
37290;PMS5003;23175;-33.706;151.094;2023-05-10T04:00:38;1;1;
37290;PMS5003;23175;-33.706;151.094;2023-05-10T04:03:08;1;1;
37290;PMS5003;23175;-33.706;151.094;2023-05-10T04:05:39;0;0;
37290;PMS5003;23175;-33.706;151.094;2023-05-10T04:08:11;2;2;
37290;PMS5003;23175;-33.706;151.094;2023-05-10T04:10:41;2;2;
37290;PMS5003;23175;-33.706;151.094;2023-05-10T04:13:11;2;2;
37290;PMS5003;23175;-33.706;151.094;2023-05-10T04:15:43;1;1;
37290;PMS5003;23175;-33.706;151.094;2023-05-10T04:18:13;3;2;
37290;PMS5003;23175;-33.706;151.094;2023-05-10T04:20:43;1;1;
37290;PMS5003;23175;-33.706;151.094;2023-05-10T04:23:13;2;2;
37290;PMS5003;23175;-33.706;151.094;2023-05-10T04:25:43;1;1;
37290;PMS5003;23175;-33.706;151.094;2023-05-10T04:28:13;2;2;
37290;PMS5003;23175;-33.706;151.094;2023-05-10T04:30:43;2;1;
37290;PMS5003;23175;-33.706;151.094;2023-05-10T04:33:13;2;2;
37290;PMS5003;23175;-33.706;151.094;2023-05-10T04:35:43;3;1;
37290;PMS5003;23175;-33.706;151.094;2023-05-10T04:38:13;1;1;
37290;PMS5003;23175;-33.706;151.094;2023-05-10T04:40:43;0;0;
37290;PMS5003;23175;-33.706;151.094;2023-05-10T04:43:13;2;2;
37290;PMS5003;23175;-33.706;151.094;2023-05-10T04:45:43;3;1;
37290;PMS5003;23175;-33.706;151.094;2023-05-10T04:48:12;3;2;
37290;PMS5003;23175;-33.706;151.094;2023-05-10T04:50:42;4;4;
37290;PMS5003;23175;-33.706;151.094;2023-05-10T04:53:12;1;1;
37290;PMS5003;23175;-33.706;151.094;2023-05-10T04:55:43;8;7;
37290;PMS5003;23175;-33.706;151.094;2023-05-10T04:58:12;2;2;
37290;PMS5003;23175;-33.706;151.094;2023-05-10T05:00:43;4;4;
37290;PMS5003;23175;-33.706;151.094;2023-05-10T05:03:13;1;1;
37290;PMS5003;23175;-33.706;151.094;2023-05-10T05:05:43;3;3;
37290;PMS5003;23175;-33.706;151.094;2023-05-10T05:08:13;4;2;
37290;PMS5003;23175;-33.706;151.094;2023-05-10T05:10:43;2;2;
37290;PMS5003;23175;-33.706;151.094;2023-05-10T05:13:14;2;1;
37290;PMS5003;23175;-33.706;151.094;2023-05-10T05:15:44;7;4;
37290;PMS5003;23175;-33.706;151.094;2023-05-10T05:18:14;2;2;
37290;PMS5003;23175;-33.706;151.094;2023-05-10T05:20:44;3;2;
37290;PMS5003;23175;-33.706;151.094;2023-05-10T05:23:14;6;4;
37290;PMS5003;23175;-33.706;151.094;2023-05-10T05:25:45;1;1;
37290;PMS5003;23175;-33.706;151.094;2023-05-10T05:28:15;1;1;
37290;PMS5003;23175;-33.706;151.094;2023-05-10T05:30:45;2;2;
37290;PMS5003;23175;-33.706;151.094;2023-05-10T05:33:14;2;2;
37290;PMS5003;23175;-33.706;151.094;2023-05-10T05:35:44;1;1;
37290;PMS5003;23175;-33.706;151.094;2023-05-10T05:38:14;1;1;
37290;PMS5003;23175;-33.706;151.094;2023-05-10T05:40:45;2;1;
37290;PMS5003;23175;-33.706;151.094;2023-05-10T05:43:15;5;5;
37290;PMS5003;23175;-33.706;151.094;2023-05-10T05:45:45;6;6;
37290;PMS5003;23175;-33.706;151.094;2023-05-10T05:48:15;2;1;
37290;PMS5003;23175;-33.706;151.094;2023-05-10T05:50:45;1;1;
37290;PMS5003;23175;-33.706;151.094;2023-05-10T05:53:15;2;0;
37290;PMS5003;23175;-33.706;151.094;2023-05-10T05:55:51;0;0;
37290;PMS5003;23175;-33.706;151.094;2023-05-10T05:58:21;1;1;
37290;PMS5003;23175;-33.706;151.094;2023-05-10T06:00:53;2;2;
37290;PMS5003;23175;-33.706;151.094;2023-05-10T06:03:22;4;2;
37290;PMS5003;23175;-33.706;151.094;2023-05-10T06:05:52;7;5;
37290;PMS5003;23175;-33.706;151.094;2023-05-10T06:08:22;3;3;
37290;PMS5003;23175;-33.706;151.094;2023-05-10T06:10:52;2;2;
37290;PMS5003;23175;-33.706;151.094;2023-05-10T06:13:22;2;1;
37290;PMS5003;23175;-33.706;151.094;2023-05-10T06:15:52;2;2;
37290;PMS5003;23175;-33.706;151.094;2023-05-10T06:18:21;2;2;
37290;PMS5003;23175;-33.706;151.094;2023-05-10T06:20:51;1;1;
37290;PMS5003;23175;-33.706;151.094;2023-05-10T06:23:22;4;2;
37290;PMS5003;23175;-33.706;151.094;2023-05-10T06:25:52;3;3;
37290;PMS5003;23175;-33.706;151.094;2023-05-10T06:28:21;2;1;
37290;PMS5003;23175;-33.706;151.094;2023-05-10T06:30:51;2;1;
37290;PMS5003;23175;-33.706;151.094;2023-05-10T06:33:20;3;1;
37290;PMS5003;23175;-33.706;151.094;2023-05-10T06:35:51;3;3;
37290;PMS5003;23175;-33.706;151.094;2023-05-10T06:38:21;3;3;
37290;PMS5003;23175;-33.706;151.094;2023-05-10T06:40:50;3;3;
37290;PMS5003;23175;-33.706;151.094;2023-05-10T06:43:20;3;3;
37290;PMS5003;23175;-33.706;151.094;2023-05-10T06:45:50;1;1;
37290;PMS5003;23175;-33.706;151.094;2023-05-10T06:48:19;5;4;
37290;PMS5003;23175;-33.706;151.094;2023-05-10T06:50:50;1;1;
37290;PMS5003;23175;-33.706;151.094;2023-05-10T06:53:20;2;2;
37290;PMS5003;23175;-33.706;151.094;2023-05-10T06:55:50;3;3;
37290;PMS5003;23175;-33.706;151.094;2023-05-10T06:58:19;2;2;
37290;PMS5003;23175;-33.706;151.094;2023-05-10T07:00:49;2;2;
37290;PMS5003;23175;-33.706;151.094;2023-05-10T07:03:19;6;3;
37290;PMS5003;23175;-33.706;151.094;2023-05-10T07:05:49;2;2;
37290;PMS5003;23175;-33.706;151.094;2023-05-10T07:08:19;4;3;
37290;PMS5003;23175;-33.706;151.094;2023-05-10T07:10:49;5;3;
37290;PMS5003;23175;-33.706;151.094;2023-05-10T07:13:19;2;2;
37290;PMS5003;23175;-33.706;151.094;2023-05-10T07:15:48;2;2;
37290;PMS5003;23175;-33.706;151.094;2023-05-10T07:18:19;5;2;
37290;PMS5003;23175;-33.706;151.094;2023-05-10T07:20:48;3;3;
37290;PMS5003;23175;-33.706;151.094;2023-05-10T07:23:18;3;3;
37290;PMS5003;23175;-33.706;151.094;2023-05-10T07:25:49;2;2;
37290;PMS5003;23175;-33.706;151.094;2023-05-10T07:28:19;9;9;
37290;PMS5003;23175;-33.706;151.094;2023-05-10T07:30:50;8;8;
37290;PMS5003;23175;-33.706;151.094;2023-05-10T07:33:20;5;3;
37290;PMS5003;23175;-33.706;151.094;2023-05-10T07:35:50;13;12;
37290;PMS5003;23175;-33.706;151.094;2023-05-10T07:38:20;6;5;
37290;PMS5003;23175;-33.706;151.094;2023-05-10T07:40:50;13;11;
37290;PMS5003;23175;-33.706;151.094;2023-05-10T07:43:20;17;17;
37290;PMS5003;23175;-33.706;151.094;2023-05-10T07:45:50;23;17;
37290;PMS5003;23175;-33.706;151.094;2023-05-10T07:48:20;15;14;
37290;PMS5003;23175;-33.706;151.094;2023-05-10T07:50:50;9;8;
37290;PMS5003;23175;-33.706;151.094;2023-05-10T07:53:20;10;7;
37290;PMS5003;23175;-33.706;151.094;2023-05-10T07:55:51;9;6;
37290;PMS5003;23175;-33.706;151.094;2023-05-10T07:58:25;5;4;
37290;PMS5003;23175;-33.706;151.094;2023-05-10T08:00:55;5;4;
37290;PMS5003;23175;-33.706;151.094;2023-05-10T08:03:25;2;2;
37290;PMS5003;23175;-33.706;151.094;2023-05-10T08:05:54;4;4;
37290;PMS5003;23175;-33.706;151.094;2023-05-10T08:08:24;4;3;
37290;PMS5003;23175;-33.706;151.094;2023-05-10T08:10:54;5;5;
37290;PMS5003;23175;-33.706;151.094;2023-05-10T08:13:24;6;6;
37290;PMS5003;23175;-33.706;151.094;2023-05-10T08:15:54;7;7;
37290;PMS5003;23175;-33.706;151.094;2023-05-10T08:18:24;6;6;
37290;PMS5003;23175;-33.706;151.094;2023-05-10T08:20:54;6;5;
37290;PMS5003;23175;-33.706;151.094;2023-05-10T08:23:24;5;4;
37290;PMS5003;23175;-33.706;151.094;2023-05-10T08:25:54;9;9;
37290;PMS5003;23175;-33.706;151.094;2023-05-10T08:28:24;5;5;
37290;PMS5003;23175;-33.706;151.094;2023-05-10T08:30:59;7;7;
37290;PMS5003;23175;-33.706;151.094;2023-05-10T08:33:29;4;4;
37290;PMS5003;23175;-33.706;151.094;2023-05-10T08:35:59;12;8;
37290;PMS5003;23175;-33.706;151.094;2023-05-10T08:38:28;6;6;
37290;PMS5003;23175;-33.706;151.094;2023-05-10T08:40:59;6;6;
37290;PMS5003;23175;-33.706;151.094;2023-05-10T08:43:31;8;6;
37290;PMS5003;23175;-33.706;151.094;2023-05-10T08:46:03;6;4;
37290;PMS5003;23175;-33.706;151.094;2023-05-10T08:48:35;4;4;
37290;PMS5003;23175;-33.706;151.094;2023-05-10T08:51:07;4;4;
37290;PMS5003;23175;-33.706;151.094;2023-05-10T08:53:41;6;6;
37290;PMS5003;23175;-33.706;151.094;2023-05-10T08:56:11;6;4;
37290;PMS5003;23175;-33.706;151.094;2023-05-10T08:58:43;5;5;
37290;PMS5003;23175;-33.706;151.094;2023-05-10T09:01:14;5;5;
37290;PMS5003;23175;-33.706;151.094;2023-05-10T09:03:46;8;7;
37290;PMS5003;23175;-33.706;151.094;2023-05-10T09:06:17;7;7;
37290;PMS5003;23175;-33.706;151.094;2023-05-10T09:08:47;7;7;
37290;PMS5003;23175;-33.706;151.094;2023-05-10T09:11:18;4;4;
37290;PMS5003;23175;-33.706;151.094;2023-05-10T09:13:50;9;7;
37290;PMS5003;23175;-33.706;151.094;2023-05-10T09:16:20;5;5;
37290;PMS5003;23175;-33.706;151.094;2023-05-10T09:18:52;8;6;
37290;PMS5003;23175;-33.706;151.094;2023-05-10T09:21:22;7;5;
37290;PMS5003;23175;-33.706;151.094;2023-05-10T09:23:53;8;6;
37290;PMS5003;23175;-33.706;151.094;2023-05-10T09:26:23;16;13;
37290;PMS5003;23175;-33.706;151.094;2023-05-10T09:28:54;11;8;
37290;PMS5003;23175;-33.706;151.094;2023-05-10T09:31:25;8;7;
37290;PMS5003;23175;-33.706;151.094;2023-05-10T09:34:18;8;8;
37290;PMS5003;23175;-33.706;151.094;2023-05-10T09:36:56;8;8;
37290;PMS5003;23175;-33.706;151.094;2023-05-10T09:39:32;11;6;
37290;PMS5003;23175;-33.706;151.094;2023-05-10T09:42:03;12;11;
37290;PMS5003;23175;-33.706;151.094;2023-05-10T09:44:34;19;17;
37290;PMS5003;23175;-33.706;151.094;2023-05-10T09:47:06;13;13;
37290;PMS5003;23175;-33.706;151.094;2023-05-10T09:49:36;14;14;
37290;PMS5003;23175;-33.706;151.094;2023-05-10T09:52:06;10;9;
37290;PMS5003;23175;-33.706;151.094;2023-05-10T09:54:36;9;9;
37290;PMS5003;23175;-33.706;151.094;2023-05-10T09:57:19;11;9;
37290;PMS5003;23175;-33.706;151.094;2023-05-10T09:59:51;11;10;
37290;PMS5003;23175;-33.706;151.094;2023-05-10T10:02:20;10;10;
37290;PMS5003;23175;-33.706;151.094;2023-05-10T10:04:55;11;10;
37290;PMS5003;23175;-33.706;151.094;2023-05-10T10:07:26;9;9;
37290;PMS5003;23175;-33.706;151.094;2023-05-10T10:09:57;14;11;
37290;PMS5003;23175;-33.706;151.094;2023-05-10T10:12:28;11;8;
37290;PMS5003;23175;-33.706;151.094;2023-05-10T10:14:59;10;10;
37290;PMS5003;23175;-33.706;151.094;2023-05-10T10:17:30;12;10;
37290;PMS5003;23175;-33.706;151.094;2023-05-10T10:20:01;15;14;
37290;PMS5003;23175;-33.706;151.094;2023-05-10T10:22:32;13;13;
37290;PMS5003;23175;-33.706;151.094;2023-05-10T10:25:03;14;13;
37290;PMS5003;23175;-33.706;151.094;2023-05-10T10:27:38;16;16;
37290;PMS5003;23175;-33.706;151.094;2023-05-10T10:30:23;18;15;
37290;PMS5003;23175;-33.706;151.094;2023-05-10T10:33:01;25;24;
37290;PMS5003;23175;-33.706;151.094;2023-05-10T10:35:46;17;17;
37290;PMS5003;23175;-33.706;151.094;2023-05-10T10:38:16;20;18;
37290;PMS5003;23175;-33.706;151.094;2023-05-10T10:40:45;17;16;
37290;PMS5003;23175;-33.706;151.094;2023-05-10T10:43:23;13;11;
37290;PMS5003;23175;-33.706;151.094;2023-05-10T10:46:26;18;18;
37290;PMS5003;23175;-33.706;151.094;2023-05-10T10:49:09;24;21;
37290;PMS5003;23175;-33.706;151.094;2023-05-10T10:51:39;25;24;
37290;PMS5003;23175;-33.706;151.094;2023-05-10T10:54:40;35;34;
37290;PMS5003;23175;-33.706;151.094;2023-05-10T10:57:17;28;27;
37290;PMS5003;23175;-33.706;151.094;2023-05-10T10:59:48;27;23;
37290;PMS5003;23175;-33.706;151.094;2023-05-10T11:02:34;33;31;
37290;PMS5003;23175;-33.706;151.094;2023-05-10T11:05:23;33;31;
37290;PMS5003;23175;-33.706;151.094;2023-05-10T11:08:07;25;25;
37290;PMS5003;23175;-33.706;151.094;2023-05-10T11:10:48;29;27;
37290;PMS5003;23175;-33.706;151.094;2023-05-10T11:13:38;25;24;
37290;PMS5003;23175;-33.706;151.094;2023-05-10T11:16:13;28;26;
37290;PMS5003;23175;-33.706;151.094;2023-05-10T11:19:01;22;22;
37290;PMS5003;23175;-33.706;151.094;2023-05-10T11:21:33;28;26;
37290;PMS5003;23175;-33.706;151.094;2023-05-10T11:24:13;27;27;
37290;PMS5003;23175;-33.706;151.094;2023-05-10T11:26:44;25;24;
37290;PMS5003;23175;-33.706;151.094;2023-05-10T11:29:17;33;32;
37290;PMS5003;23175;-33.706;151.094;2023-05-10T11:31:47;50;50;
37290;PMS5003;23175;-33.706;151.094;2023-05-10T11:34:24;58;56;
37290;PMS5003;23175;-33.706;151.094;2023-05-10T11:36:56;50;47;
37290;PMS5003;23175;-33.706;151.094;2023-05-10T11:39:27;43;38;
37290;PMS5003;23175;-33.706;151.094;2023-05-10T11:41:59;34;31;
37290;PMS5003;23175;-33.706;151.094;2023-05-10T11:44:29;45;44;
37290;PMS5003;23175;-33.706;151.094;2023-05-10T11:47:01;38;35;
37290;PMS5003;23175;-33.706;151.094;2023-05-10T11:49:31;32;32;
37290;PMS5003;23175;-33.706;151.094;2023-05-10T11:52:05;27;27;
37290;PMS5003;23175;-33.706;151.094;2023-05-10T11:54:36;28;28;
37290;PMS5003;23175;-33.706;151.094;2023-05-10T11:57:12;19;19;
37290;PMS5003;23175;-33.706;151.094;2023-05-10T11:59:42;22;21;
37290;PMS5003;23175;-33.706;151.094;2023-05-10T12:02:12;22;22;
37290;PMS5003;23175;-33.706;151.094;2023-05-10T12:04:43;23;23;
37290;PMS5003;23175;-33.706;151.094;2023-05-10T12:07:13;24;24;
37290;PMS5003;23175;-33.706;151.094;2023-05-10T12:09:44;24;24;
37290;PMS5003;23175;-33.706;151.094;2023-05-10T12:12:35;29;28;
37290;PMS5003;23175;-33.706;151.094;2023-05-10T12:15:07;33;31;
37290;PMS5003;23175;-33.706;151.094;2023-05-10T12:17:40;30;29;
37290;PMS5003;23175;-33.706;151.094;2023-05-10T12:20:15;27;27;
37290;PMS5003;23175;-33.706;151.094;2023-05-10T12:22:47;30;29;
37290;PMS5003;23175;-33.706;151.094;2023-05-10T12:25:20;22;21;
37290;PMS5003;23175;-33.706;151.094;2023-05-10T12:27:52;24;24;
37290;PMS5003;23175;-33.706;151.094;2023-05-10T12:30:23;28;27;
37290;PMS5003;23175;-33.706;151.094;2023-05-10T12:32:59;30;29;
37290;PMS5003;23175;-33.706;151.094;2023-05-10T12:35:31;23;22;
37290;PMS5003;23175;-33.706;151.094;2023-05-10T12:38:02;24;24;
37290;PMS5003;23175;-33.706;151.094;2023-05-10T12:40:54;35;33;
37290;PMS5003;23175;-33.706;151.094;2023-05-10T12:43:24;33;32;
37290;PMS5003;23175;-33.706;151.094;2023-05-10T12:45:55;28;27;
37290;PMS5003;23175;-33.706;151.094;2023-05-10T12:48:25;32;31;
37290;PMS5003;23175;-33.706;151.094;2023-05-10T12:50:55;27;24;
37290;PMS5003;23175;-33.706;151.094;2023-05-10T12:53:25;33;32;
37290;PMS5003;23175;-33.706;151.094;2023-05-10T12:55:56;49;45;
37290;PMS5003;23175;-33.706;151.094;2023-05-10T12:58:26;44;43;
37290;PMS5003;23175;-33.706;151.094;2023-05-10T13:00:57;44;41;
37290;PMS5003;23175;-33.706;151.094;2023-05-10T13:03:29;41;37;
37290;PMS5003;23175;-33.706;151.094;2023-05-10T13:05:59;33;31;
37290;PMS5003;23175;-33.706;151.094;2023-05-10T13:08:29;39;37;
37290;PMS5003;23175;-33.706;151.094;2023-05-10T13:10:59;33;33;
37290;PMS5003;23175;-33.706;151.094;2023-05-10T13:13:30;22;22;
37290;PMS5003;23175;-33.706;151.094;2023-05-10T13:16:01;23;23;
37290;PMS5003;23175;-33.706;151.094;2023-05-10T13:18:31;23;23;
37290;PMS5003;23175;-33.706;151.094;2023-05-10T13:21:00;25;22;
37290;PMS5003;23175;-33.706;151.094;2023-05-10T13:23:30;25;24;
37290;PMS5003;23175;-33.706;151.094;2023-05-10T13:26:01;26;26;
37290;PMS5003;23175;-33.706;151.094;2023-05-10T13:28:31;22;21;
37290;PMS5003;23175;-33.706;151.094;2023-05-10T13:31:01;25;22;
37290;PMS5003;23175;-33.706;151.094;2023-05-10T13:33:31;21;21;
37290;PMS5003;23175;-33.706;151.094;2023-05-10T13:36:01;21;18;
37290;PMS5003;23175;-33.706;151.094;2023-05-10T13:38:32;20;20;
37290;PMS5003;23175;-33.706;151.094;2023-05-10T13:41:02;21;20;
37290;PMS5003;23175;-33.706;151.094;2023-05-10T13:43:33;21;18;
37290;PMS5003;23175;-33.706;151.094;2023-05-10T13:46:03;22;22;
37290;PMS5003;23175;-33.706;151.094;2023-05-10T13:48:34;24;22;
37290;PMS5003;23175;-33.706;151.094;2023-05-10T13:51:03;15;15;
37290;PMS5003;23175;-33.706;151.094;2023-05-10T13:53:34;19;18;
37290;PMS5003;23175;-33.706;151.094;2023-05-10T13:56:04;15;15;
37290;PMS5003;23175;-33.706;151.094;2023-05-10T13:58:34;22;20;
37290;PMS5003;23175;-33.706;151.094;2023-05-10T14:01:04;16;16;
37290;PMS5003;23175;-33.706;151.094;2023-05-10T14:03:34;22;19;
37290;PMS5003;23175;-33.706;151.094;2023-05-10T14:06:04;12;12;
37290;PMS5003;23175;-33.706;151.094;2023-05-10T14:08:34;18;13;
37290;PMS5003;23175;-33.706;151.094;2023-05-10T14:11:05;13;13;
37290;PMS5003;23175;-33.706;151.094;2023-05-10T14:13:35;15;13;
37290;PMS5003;23175;-33.706;151.094;2023-05-10T14:16:06;13;13;
37290;PMS5003;23175;-33.706;151.094;2023-05-10T14:18:36;11;11;
37290;PMS5003;23175;-33.706;151.094;2023-05-10T14:21:07;10;10;
37290;PMS5003;23175;-33.706;151.094;2023-05-10T14:23:37;11;10;
37290;PMS5003;23175;-33.706;151.094;2023-05-10T14:26:08;13;11;
37290;PMS5003;23175;-33.706;151.094;2023-05-10T14:28:38;17;13;
37290;PMS5003;23175;-33.706;151.094;2023-05-10T14:31:09;17;15;
37290;PMS5003;23175;-33.706;151.094;2023-05-10T14:33:39;12;12;
37290;PMS5003;23175;-33.706;151.094;2023-05-10T14:36:10;16;15;
37290;PMS5003;23175;-33.706;151.094;2023-05-10T14:38:41;15;14;
37290;PMS5003;23175;-33.706;151.094;2023-05-10T14:41:11;9;9;
37290;PMS5003;23175;-33.706;151.094;2023-05-10T14:43:41;11;11;
37290;PMS5003;23175;-33.706;151.094;2023-05-10T14:46:12;15;15;
37290;PMS5003;23175;-33.706;151.094;2023-05-10T14:48:42;9;9;
37290;PMS5003;23175;-33.706;151.094;2023-05-10T14:51:12;14;11;
37290;PMS5003;23175;-33.706;151.094;2023-05-10T14:53:43;12;11;
37290;PMS5003;23175;-33.706;151.094;2023-05-10T14:56:13;13;10;
37290;PMS5003;23175;-33.706;151.094;2023-05-10T14:58:43;15;13;
37290;PMS5003;23175;-33.706;151.094;2023-05-10T15:01:13;12;10;
37290;PMS5003;23175;-33.706;151.094;2023-05-10T15:03:43;13;11;
37290;PMS5003;23175;-33.706;151.094;2023-05-10T15:06:14;13;13;
37290;PMS5003;23175;-33.706;151.094;2023-05-10T15:08:44;11;10;
37290;PMS5003;23175;-33.706;151.094;2023-05-10T15:11:14;12;10;
37290;PMS5003;23175;-33.706;151.094;2023-05-10T15:13:44;11;11;
37290;PMS5003;23175;-33.706;151.094;2023-05-10T15:16:14;11;10;
37290;PMS5003;23175;-33.706;151.094;2023-05-10T15:18:44;13;12;
37290;PMS5003;23175;-33.706;151.094;2023-05-10T15:21:14;13;13;
37290;PMS5003;23175;-33.706;151.094;2023-05-10T15:23:45;13;11;
37290;PMS5003;23175;-33.706;151.094;2023-05-10T15:26:14;10;9;
37290;PMS5003;23175;-33.706;151.094;2023-05-10T15:28:44;12;10;
37290;PMS5003;23175;-33.706;151.094;2023-05-10T15:31:14;14;11;
37290;PMS5003;23175;-33.706;151.094;2023-05-10T15:33:44;12;12;
37290;PMS5003;23175;-33.706;151.094;2023-05-10T15:36:14;14;13;
37290;PMS5003;23175;-33.706;151.094;2023-05-10T15:38:44;10;10;
37290;PMS5003;23175;-33.706;151.094;2023-05-10T15:41:15;15;11;
37290;PMS5003;23175;-33.706;151.094;2023-05-10T15:43:45;12;12;
37290;PMS5003;23175;-33.706;151.094;2023-05-10T15:46:15;14;14;
37290;PMS5003;23175;-33.706;151.094;2023-05-10T15:48:45;13;11;
37290;PMS5003;23175;-33.706;151.094;2023-05-10T15:51:14;14;11;
37290;PMS5003;23175;-33.706;151.094;2023-05-10T15:53:44;11;11;
37290;PMS5003;23175;-33.706;151.094;2023-05-10T15:56:14;15;13;
37290;PMS5003;23175;-33.706;151.094;2023-05-10T15:58:44;11;9;
37290;PMS5003;23175;-33.706;151.094;2023-05-10T16:01:14;12;10;
37290;PMS5003;23175;-33.706;151.094;2023-05-10T16:03:44;13;11;
37290;PMS5003;23175;-33.706;151.094;2023-05-10T16:06:14;11;11;
37290;PMS5003;23175;-33.706;151.094;2023-05-10T16:08:44;18;14;
37290;PMS5003;23175;-33.706;151.094;2023-05-10T16:11:17;13;11;
37290;PMS5003;23175;-33.706;151.094;2023-05-10T16:13:54;13;12;
37290;PMS5003;23175;-33.706;151.094;2023-05-10T16:16:25;14;10;
37290;PMS5003;23175;-33.706;151.094;2023-05-10T16:18:55;11;11;